Terminal Aerodrome Forecast
Issued by NWS Sioux Falls, SD

Home | Current Version | Previous Version | Graphics & Text | Print | Product List | Glossary Off
Versions: 1 2 3 4 5 6 7 8 9 10 11 12 13 14 15 16 17 18 19 20

000
FTUS43 KFSD 192320
TAFFSD
TAF
KFSD 192320Z 2000/2024 10011KT P6SM OVC250
     FM200500 09006KT P6SM SCT050 BKN120
     FM200800 07006KT P6SM BKN050
     FM201500 05009KT P6SM SCT120=

USA.gov is the U.S. government's official web portal to all federal, state and local government web resources and services.